Grangeville, ID (83530)

12:27 AM PDT on September 03, 2014 (GMT -0700)
Elk St. | Change Station
CLOSE
Current Station
Personal Weather Station
Location: Grangeville, ID
Elevation: 3460 ft
Nearby Weather Stations

Elev 3460 ft 45.92 °N, 116.13 °W | Updated 3 seconds ago

Mostly Cloudy
Mostly Cloudy
60.7 °F
Feels Like 60.7 °F
N
9.0
Wind Variable Wind from WSW
Gusts 21.0 mph

Today
High -- | Low -- °F
--% Chance of Precip.
Yesterday
High -- | Low -- °F
Precip. -- in
6:07 AM 7:18 PM
First Quarter, 59% visible
Pressure 29.82 in
Visibility 10.0 miles
Clouds Scattered Clouds 7000 ft
Mostly Cloudy 10000 ft
Dew Point 41 °F
Humidity 48%
Rainfall 0.00 in
Snow Depth Not available.
UV 0 out of 12
Pollen 6.90 out of 12
Air Quality Not available.
Flu Activity Not available.
METAR KGIC 030715Z AUTO 26011G19KT 10SM SCT070 BKN100 17/03 A2982 RMK AO1 T01680030

More Conditions Fewer Conditions

Pressure 29.82 in
Visibility 10.0 miles
Clouds Scattered Clouds 7000 ft
Mostly Cloudy 10000 ft
Dew Point 41 °F
Humidity 48%
Rainfall 0.00 in
Snow Depth Not available.
UV 0 out of 12
Pollen 6.90 out of 12
Air Quality Not available.
Flu Activity Not available.
METAR KGIC 030715Z AUTO 26011G19KT 10SM SCT070 BKN100 17/03 A2982 RMK AO1 T01680030

More Conditions Fewer Conditions

10-Day Weather Forecast

Almanac

Astronomy

Sep. 03, 2014 Rise Set
Actual Time 6:07 AM PDT 7:18 PM PDT
Civil Twilight 5:37 AM PDT 7:49 PM PDT
Nautical Twilight 5:00 AM PDT 8:26 PM PDT
Astronomical Twilight 4:21 AM PDT 9:05 PM PDT
Moon 3:15 PM PDT No Moon Set
Length of Visible Light 14h 12m
Length of Day
13h 10m
Tomorrow will be 3m 9s shorter.
First Quarter, 59% of the Moon is Illuminated
Today
First Quarter
Sep 8
Full
Sep 15
Last Quarter
Sep 24
New
Oct 1
First Quarter

Today's Extremes

State Highs State Lows

Community

WunderPhotos

Upload Photos

1,749,891 photos uploaded!

Nearby

Snow Depth

Station Depth Elevation
Hemlock Butte 0 in 5810 ft
Shanghi Summit 0 in 4570 ft
Secesh Summit 0 in 6520 ft
Crater Meadows 0 in 5960 ft
West Branch 0 in 5560 ft

Earthquake Activity

City Distance Mag. Time & Date
Mullan, Idaho 106 miles 2.5 1:01 AM PDT
2014-08-31
Minimum magnitude displayed is 2.5.

Coastal Water Temperatures

Place Temperature
No Stations Reporting

Nearby Weather Stations